createdAt,value
2023-02-20T00:01:35.162Z,68.22
2023-02-20T00:04:43.293Z,68.16
2023-02-20T00:07:54.649Z,68.40
2023-02-20T00:11:03.056Z,68.66
2023-02-20T00:14:11.200Z,68.57
2023-02-20T00:17:19.623Z,68.47
2023-02-20T00:20:30.239Z,68.63
2023-02-20T00:23:39.739Z,68.84
2023-02-20T00:26:49.765Z,68.78
2023-02-20T00:29:57.873Z,69.64
2023-02-20T00:33:06.060Z,69.66
2023-02-20T00:36:19.482Z,69.56
2023-02-20T00:39:29.097Z,69.31
2023-02-20T00:42:37.423Z,69.31
2023-02-20T00:45:46.761Z,69.09
2023-02-20T00:48:54.869Z,69.35
2023-02-20T00:52:21.935Z,70.05
2023-02-20T00:55:32.479Z,69.20
2023-02-20T00:58:40.634Z,69.80
2023-02-20T01:01:48.834Z,69.64
2023-02-20T01:04:57.711Z,69.58
2023-02-20T01:08:06.197Z,68.83
2023-02-20T01:11:15.634Z,69.03
2023-02-20T01:14:24.166Z,69.66
2023-02-20T01:17:32.346Z,69.14
2023-02-20T01:20:40.493Z,69.78
2023-02-20T01:23:48.642Z,69.62
2023-02-20T01:26:58.258Z,69.53
2023-02-20T01:30:08.500Z,69.84
2023-02-20T01:33:17.508Z,69.95
2023-02-20T01:36:27.502Z,69.43
2023-02-20T01:39:35.769Z,69.48
2023-02-20T01:42:45.359Z,69.88
2023-02-20T01:45:53.558Z,68.83
2023-02-20T01:49:07.084Z,68.79
2023-02-20T01:52:20.978Z,69.25
2023-02-20T01:55:38.356Z,68.74
2023-02-20T01:58:52.001Z,69.04
2023-02-20T02:02:00.983Z,68.70
2023-02-20T02:05:12.168Z,68.54
2023-02-20T02:08:24.638Z,69.26
2023-02-20T02:11:33.031Z,68.57
2023-02-20T02:14:42.566Z,68.99
2023-02-20T02:18:16.387Z,69.16
2023-02-20T02:22:25.408Z,68.76
2023-02-20T02:25:48.501Z,68.64
2023-02-20T02:29:31.831Z,69.35
2023-02-20T02:33:31.668Z,68.45
2023-02-20T02:36:56.708Z,68.99
2023-02-20T02:40:15.651Z,68.82
2023-02-20T02:43:35.754Z,68.64
2023-02-20T02:46:55.518Z,68.49
2023-02-20T02:50:09.346Z,68.65
2023-02-20T02:53:19.497Z,68.81
2023-02-20T02:56:36.414Z,69.20
2023-02-20T02:59:47.081Z,68.39
2023-02-20T03:03:02.512Z,69.04
2023-02-20T03:06:16.436Z,69.18
2023-02-20T03:09:33.793Z,69.12
2023-02-20T03:12:48.612Z,69.63
2023-02-20T03:15:58.811Z,69.84
2023-02-20T03:19:14.074Z,70.17
2023-02-20T03:22:28.061Z,69.76
2023-02-20T03:25:43.429Z,69.43
2023-02-20T03:29:00.615Z,69.02
2023-02-20T03:32:34.887Z,69.41
2023-02-20T03:36:06.828Z,69.29
2023-02-20T03:39:44.402Z,70.30
2023-02-20T03:43:19.904Z,70.20
2023-02-20T03:46:33.118Z,70.22
2023-02-20T03:50:03.393Z,70.59
2023-02-20T03:53:14.284Z,69.99
2023-02-20T03:56:29.413Z,70.62
2023-02-20T03:59:49.650Z,70.21
2023-02-20T04:03:05.972Z,70.99
2023-02-20T04:06:20.525Z,70.98
2023-02-20T04:09:34.401Z,71.40
2023-02-20T04:12:46.581Z,72.21
2023-02-20T04:16:00.896Z,72.00
2023-02-20T04:19:09.493Z,71.91
2023-02-20T04:22:26.886Z,71.90
2023-02-20T04:25:43.805Z,72.25
2023-02-20T04:28:55.040Z,72.70
2023-02-20T04:32:05.634Z,73.54
2023-02-20T04:35:20.039Z,73.82
2023-02-20T04:38:29.976Z,73.58
2023-02-20T04:41:39.793Z,74.42
2023-02-20T04:44:48.424Z,73.72
2023-02-20T04:47:58.210Z,75.04
2023-02-20T04:51:07.962Z,74.77
2023-02-20T04:54:16.879Z,74.67
2023-02-20T04:57:25.405Z,74.77
2023-02-20T05:00:34.344Z,74.65
2023-02-20T05:03:44.129Z,75.85
2023-02-20T05:06:55.844Z,75.70
2023-02-20T05:10:04.024Z,75.81
2023-02-20T05:13:12.282Z,76.21
2023-02-20T05:16:20.518Z,77.23
2023-02-20T05:19:30.309Z,76.42
2023-02-20T05:22:37.557Z,76.44
2023-02-20T05:25:45.916Z,77.10
2023-02-20T05:28:54.230Z,77.59
2023-02-20T05:32:02.603Z,77.16
2023-02-20T05:35:12.347Z,77.13
2023-02-20T05:38:21.028Z,77.04
2023-02-20T05:41:29.157Z,76.85
2023-02-20T05:44:38.979Z,77.14
2023-02-20T05:47:47.180Z,77.14
2023-02-20T05:50:57.617Z,77.37
2023-02-20T05:54:07.414Z,77.11
2023-02-20T05:57:17.047Z,77.33
2023-02-20T06:00:25.798Z,77.40
2023-02-20T06:03:33.983Z,78.03
2023-02-20T06:06:45.010Z,77.89
2023-02-20T06:09:53.136Z,78.27
2023-02-20T06:13:01.944Z,78.74
2023-02-20T06:16:11.646Z,78.86
2023-02-20T06:19:22.806Z,78.77
2023-02-20T06:22:32.224Z,79.26
2023-02-20T06:25:40.337Z,78.81
2023-02-20T06:28:50.173Z,78.32
2023-02-20T06:32:00.229Z,78.58
2023-02-20T06:35:09.905Z,78.39
2023-02-20T06:38:19.438Z,78.56
2023-02-20T06:41:28.034Z,78.13
2023-02-20T06:44:36.366Z,77.70
2023-02-20T06:47:44.603Z,76.95
2023-02-20T06:50:56.208Z,76.91
2023-02-20T06:54:05.850Z,76.74
2023-02-20T06:57:15.271Z,76.04
2023-02-20T07:00:25.009Z,75.54
2023-02-20T07:03:33.435Z,73.87
2023-02-20T07:06:42.117Z,73.72
2023-02-20T07:09:51.941Z,72.98
2023-02-20T07:13:03.538Z,73.18
2023-02-20T07:16:12.381Z,72.67
2023-02-20T07:19:21.012Z,71.30
2023-02-20T07:22:29.175Z,69.90
2023-02-20T07:25:39.034Z,69.49
2023-02-20T07:28:47.288Z,69.12
2023-02-20T07:31:55.613Z,68.51
2023-02-20T07:35:08.112Z,68.14
2023-02-20T07:38:17.567Z,67.27
2023-02-20T07:41:31.577Z,67.57
2023-02-20T07:44:39.890Z,67.17
2023-02-20T07:47:48.126Z,66.85
2023-02-20T07:50:56.250Z,66.68
2023-02-20T07:54:04.490Z,66.40
2023-02-20T07:57:15.532Z,66.44
2023-02-20T08:00:24.067Z,65.78
2023-02-20T08:03:32.278Z,65.77
2023-02-20T08:06:40.659Z,65.92
2023-02-20T08:09:49.007Z,65.60
2023-02-20T08:12:58.593Z,65.59
2023-02-20T08:16:07.736Z,66.32
2023-02-20T08:19:15.932Z,65.24
2023-02-20T08:22:36.445Z,65.08
2023-02-20T08:26:01.721Z,63.85
2023-02-20T08:29:11.696Z,63.48
2023-02-20T08:32:19.965Z,62.73
2023-02-20T08:35:28.137Z,61.66
2023-02-20T08:38:38.856Z,62.27
2023-02-20T08:41:48.623Z,61.60
2023-02-20T08:44:58.050Z,61.69
2023-02-20T08:48:06.452Z,60.95
2023-02-20T08:51:20.066Z,61.33
2023-02-20T08:54:28.260Z,60.52
2023-02-20T08:57:36.563Z,59.76
2023-02-20T09:00:46.247Z,58.81
2023-02-20T09:04:03.277Z,58.38
2023-02-20T09:07:12.369Z,58.77
2023-02-20T09:10:21.101Z,58.61
2023-02-20T09:13:29.938Z,58.51
2023-02-20T09:16:42.508Z,57.96
2023-02-20T09:19:50.756Z,58.23
2023-02-20T09:23:00.986Z,59.56
2023-02-20T09:26:09.539Z,58.93
2023-02-20T09:29:18.081Z,58.93
2023-02-20T09:32:34.771Z,59.02
2023-02-20T09:35:43.692Z,58.05
2023-02-20T09:38:52.001Z,57.57
2023-02-20T09:42:19.148Z,57.35
2023-02-20T09:45:33.221Z,56.02
2023-02-20T09:49:10.324Z,56.41
2023-02-20T09:52:19.815Z,55.46
2023-02-20T09:55:41.403Z,54.68
2023-02-20T09:59:00.831Z,54.96
2023-02-20T10:02:18.534Z,53.98
2023-02-20T10:05:31.970Z,54.28
2023-02-20T10:08:40.169Z,53.79
2023-02-20T10:12:12.538Z,53.67
2023-02-20T10:15:27.679Z,53.35
2023-02-20T10:18:49.050Z,53.05
2023-02-20T10:22:11.231Z,53.89
2023-02-20T10:25:44.813Z,52.02
2023-02-20T10:28:53.605Z,49.27
2023-02-20T10:32:05.476Z,50.35
2023-02-20T10:35:19.490Z,50.48
2023-02-20T10:38:39.687Z,47.73
2023-02-20T10:41:56.730Z,48.13
2023-02-20T10:45:14.149Z,48.23
2023-02-20T10:48:34.218Z,47.48
2023-02-20T10:51:49.763Z,48.14
2023-02-20T10:55:10.214Z,48.14
2023-02-20T10:58:27.246Z,48.25
2023-02-20T11:01:38.636Z,49.62
2023-02-20T11:04:56.158Z,49.58
2023-02-20T11:08:05.178Z,48.92
2023-02-20T11:11:33.407Z,49.14
2023-02-20T11:14:47.888Z,50.03
2023-02-20T11:17:59.271Z,48.87
2023-02-20T11:21:07.618Z,47.69
2023-02-20T11:24:32.578Z,46.67
2023-02-20T11:27:42.853Z,47.15
2023-02-20T11:31:02.722Z,47.64
2023-02-20T11:34:20.899Z,47.21
2023-02-20T11:37:29.414Z,46.70
2023-02-20T11:40:37.866Z,47.27
2023-02-20T11:44:00.906Z,46.11
2023-02-20T11:47:28.120Z,45.88
2023-02-20T11:50:42.333Z,45.14
2023-02-20T11:54:10.337Z,45.80
2023-02-20T11:57:26.543Z,45.91
2023-02-20T12:00:49.144Z,47.01
2023-02-20T12:04:00.136Z,45.05
2023-02-20T12:07:27.320Z,45.94
2023-02-20T12:10:43.700Z,44.69
2023-02-20T12:13:54.952Z,43.59
2023-02-20T12:17:16.501Z,42.34
2023-02-20T12:20:29.800Z,43.62
2023-02-20T12:23:51.868Z,43.18
2023-02-20T12:27:04.452Z,41.85
2023-02-20T12:30:32.370Z,42.93
2023-02-20T12:34:03.453Z,42.36
2023-02-20T12:37:23.403Z,41.46
2023-02-20T12:40:45.781Z,42.07
2023-02-20T12:44:13.786Z,42.48
2023-02-20T12:47:33.219Z,41.71
2023-02-20T12:51:04.779Z,42.30
2023-02-20T12:54:36.104Z,41.33
2023-02-20T12:58:02.378Z,39.97
2023-02-20T13:01:15.286Z,39.65
2023-02-20T13:04:34.642Z,40.07
2023-02-20T13:07:52.342Z,39.82
2023-02-20T13:11:17.383Z,40.62
2023-02-20T13:14:41.596Z,39.39
2023-02-20T13:17:59.795Z,38.63
2023-02-20T13:21:12.948Z,39.35
2023-02-20T13:24:36.776Z,38.04
2023-02-20T13:27:44.957Z,39.75
2023-02-20T13:31:14.345Z,38.20
2023-02-20T13:34:47.791Z,38.53
2023-02-20T13:37:57.196Z,37.52
2023-02-20T13:41:09.576Z,37.60
2023-02-20T13:44:46.917Z,38.04
2023-02-20T13:48:19.580Z,38.30
2023-02-20T13:51:39.661Z,37.20
2023-02-20T13:54:48.083Z,36.43
2023-02-20T13:58:07.556Z,37.08
2023-02-20T14:01:16.371Z,37.08
2023-02-20T14:04:25.974Z,37.49
2023-02-20T14:07:39.350Z,35.85
2023-02-20T14:10:49.729Z,36.45
2023-02-20T14:14:04.137Z,35.02
2023-02-20T14:17:19.709Z,35.05
2023-02-20T14:20:37.135Z,35.25
2023-02-20T14:23:46.133Z,35.04
2023-02-20T14:26:56.896Z,36.48
2023-02-20T14:30:08.952Z,36.78
2023-02-20T14:33:27.037Z,39.06
2023-02-20T14:36:52.049Z,40.25
2023-02-20T14:40:10.682Z,39.95
2023-02-20T14:43:23.205Z,39.65
2023-02-20T14:46:37.147Z,38.24
2023-02-20T14:49:46.239Z,36.86
2023-02-20T14:53:13.177Z,36.27
2023-02-20T14:56:36.609Z,38.38
2023-02-20T14:59:44.897Z,39.33
2023-02-20T15:02:57.163Z,39.71
2023-02-20T15:06:08.270Z,36.57
2023-02-20T15:09:22.777Z,36.26
2023-02-20T15:12:37.570Z,35.52
2023-02-20T15:15:48.397Z,36.15
2023-02-20T15:18:58.603Z,35.63
2023-02-20T15:22:22.896Z,36.97
2023-02-20T15:25:34.599Z,36.87
2023-02-20T15:28:42.675Z,37.56
2023-02-20T15:31:58.530Z,37.34
2023-02-20T15:35:15.656Z,37.42
2023-02-20T15:38:27.940Z,37.69
2023-02-20T15:41:36.100Z,38.23
2023-02-20T15:44:44.709Z,39.25
2023-02-20T15:47:52.988Z,39.67
2023-02-20T15:51:03.073Z,40.95
2023-02-20T15:54:18.631Z,40.04
2023-02-20T15:57:26.682Z,41.05
2023-02-20T16:00:35.252Z,40.99
2023-02-20T16:03:53.371Z,40.66
2023-02-20T16:07:03.561Z,41.24
2023-02-20T16:10:13.861Z,41.96
2023-02-20T16:13:28.915Z,41.41
2023-02-20T16:16:42.113Z,41.92
2023-02-20T16:19:50.470Z,42.18
2023-02-20T16:22:59.844Z,41.88
2023-02-20T16:26:09.175Z,42.25
2023-02-20T16:29:22.188Z,42.11
2023-02-20T16:32:31.541Z,43.20
2023-02-20T16:35:40.251Z,43.00
2023-02-20T16:38:49.965Z,43.06
2023-02-20T16:42:00.182Z,43.99
2023-02-20T16:45:14.119Z,44.40
2023-02-20T16:48:22.993Z,44.82
2023-02-20T16:51:31.733Z,45.12
2023-02-20T16:54:41.295Z,45.48
2023-02-20T16:57:50.093Z,45.89
2023-02-20T17:00:58.413Z,46.61
2023-02-20T17:04:09.002Z,48.25
2023-02-20T17:07:19.697Z,48.84
2023-02-20T17:10:30.880Z,49.85
2023-02-20T17:13:39.242Z,50.75
2023-02-20T17:16:50.693Z,50.38
2023-02-20T17:19:59.036Z,52.38
2023-02-20T17:23:07.387Z,52.78
2023-02-20T17:26:17.076Z,52.97
2023-02-20T17:29:26.988Z,53.00
2023-02-20T17:32:35.471Z,54.62
2023-02-20T17:35:43.600Z,54.20
2023-02-20T17:38:51.847Z,54.91
2023-02-20T17:42:02.169Z,55.12
2023-02-20T17:45:11.157Z,56.06
2023-02-20T17:48:19.630Z,55.96
2023-02-20T17:51:27.821Z,56.52
2023-02-20T17:54:36.810Z,57.47
2023-02-20T17:57:46.388Z,57.73
2023-02-20T18:00:54.880Z,58.42
2023-02-20T18:04:04.658Z,58.94
2023-02-20T18:07:14.503Z,59.20
2023-02-20T18:10:23.158Z,59.48
2023-02-20T18:13:32.725Z,59.02
2023-02-20T18:16:40.999Z,59.42
2023-02-20T18:19:49.323Z,58.28
2023-02-20T18:22:58.065Z,58.72
2023-02-20T18:26:06.718Z,58.28
2023-02-20T18:29:16.372Z,58.81
2023-02-20T18:32:24.846Z,59.49
2023-02-20T18:35:33.300Z,59.39
2023-02-20T18:38:41.709Z,60.54
2023-02-20T18:41:52.986Z,60.08
2023-02-20T18:45:02.708Z,59.91
2023-02-20T18:48:11.307Z,60.20
2023-02-20T18:51:19.586Z,60.08
2023-02-20T18:54:32.872Z,60.60
2023-02-20T18:57:41.265Z,60.29
2023-02-20T19:00:51.175Z,60.09
2023-02-20T19:04:02.866Z,59.59
2023-02-20T19:07:11.186Z,60.18
2023-02-20T19:10:22.753Z,60.07
2023-02-20T19:13:31.108Z,59.68
2023-02-20T19:16:40.840Z,59.58
2023-02-20T19:19:49.078Z,59.21
2023-02-20T19:22:58.430Z,59.99
2023-02-20T19:26:08.187Z,60.48
2023-02-20T19:29:16.689Z,60.44
2023-02-20T19:32:26.459Z,60.53
2023-02-20T19:35:34.966Z,60.49
2023-02-20T19:38:43.256Z,60.03
2023-02-20T19:41:51.866Z,59.54
2023-02-20T19:45:00.153Z,59.58
2023-02-20T19:48:09.716Z,60.93
2023-02-20T19:51:21.181Z,59.26
2023-02-20T19:54:31.454Z,60.83
2023-02-20T19:57:39.683Z,59.80
2023-02-20T20:00:48.333Z,59.46
2023-02-20T20:03:57.836Z,60.25
2023-02-20T20:07:06.392Z,61.32
2023-02-20T20:10:15.232Z,61.22
2023-02-20T20:13:23.456Z,61.25
2023-02-20T20:16:33.683Z,60.63
2023-02-20T20:19:53.147Z,60.74
2023-02-20T20:23:06.672Z,60.39
2023-02-20T20:26:15.368Z,60.13
2023-02-20T20:29:23.880Z,60.88
2023-02-20T20:32:32.130Z,60.89
2023-02-20T20:35:41.858Z,59.68
2023-02-20T20:38:50.111Z,59.98
2023-02-20T20:41:58.494Z,60.73
2023-02-20T20:45:08.889Z,61.00
2023-02-20T20:48:17.218Z,61.01
2023-02-20T20:51:26.900Z,61.77
2023-02-20T20:54:35.449Z,60.10
2023-02-20T20:57:43.890Z,60.52
2023-02-20T21:00:54.112Z,59.31
2023-02-20T21:04:02.387Z,59.80
2023-02-20T21:07:12.219Z,59.69
2023-02-20T21:10:20.867Z,58.88
2023-02-20T21:13:29.282Z,58.65
2023-02-20T21:16:40.804Z,58.29
2023-02-20T21:19:49.026Z,57.59
2023-02-20T21:22:59.868Z,57.91
2023-02-20T21:26:08.442Z,56.66
2023-02-20T21:29:17.353Z,56.90
2023-02-20T21:32:26.695Z,56.83
2023-02-20T21:35:35.077Z,56.46
2023-02-20T21:38:44.772Z,56.46
2023-02-20T21:42:11.204Z,55.74
2023-02-20T21:45:20.157Z,54.55
2023-02-20T21:48:28.287Z,55.70
2023-02-20T21:51:36.569Z,54.46
2023-02-20T21:54:51.790Z,54.19
2023-02-20T21:58:04.963Z,53.14
2023-02-20T22:01:12.406Z,54.37
2023-02-20T22:04:20.678Z,55.55
2023-02-20T22:07:46.567Z,54.36
2023-02-20T22:11:14.204Z,54.49
2023-02-20T22:14:40.453Z,56.34
2023-02-20T22:18:06.577Z,55.51
2023-02-20T22:21:37.352Z,56.35
2023-02-20T22:25:02.963Z,57.81
2023-02-20T22:28:31.140Z,59.36
2023-02-20T22:31:57.585Z,61.06
2023-02-20T22:35:24.928Z,61.53
2023-02-20T22:38:50.901Z,61.58
2023-02-20T22:42:20.678Z,61.90
2023-02-20T22:45:50.621Z,62.15
2023-02-20T22:49:19.308Z,62.45
2023-02-20T22:52:45.144Z,62.94
2023-02-20T22:56:11.302Z,63.05
2023-02-20T22:59:37.738Z,62.92
2023-02-20T23:03:05.050Z,62.51
2023-02-20T23:06:30.817Z,63.05
2023-02-20T23:09:56.641Z,62.23
2023-02-20T23:13:22.672Z,62.18
2023-02-20T23:16:48.573Z,61.41
2023-02-20T23:20:15.853Z,62.18
2023-02-20T23:23:41.724Z,61.07
2023-02-20T23:27:11.044Z,59.79
2023-02-20T23:30:37.039Z,61.67
2023-02-20T23:34:03.059Z,62.61
2023-02-20T23:37:31.609Z,61.35
2023-02-20T23:40:57.421Z,61.75
2023-02-20T23:44:25.274Z,62.13
2023-02-20T23:47:51.294Z,61.62
2023-02-20T23:51:17.387Z,61.18
2023-02-20T23:54:44.858Z,60.98
2023-02-20T23:58:10.793Z,61.21
